Arbon, Idaho
Current Conditions -  °F | °C
As of 3:53 AM on Friday 21 Nov 2014 (Local Time) from KPIH Reporting Station
Haze Haze  
Wind Chill: -10°   Ceiling: Unl
Heat Index: -6°   Visibility: 5mi
Dew Point: -7°   Wind: 5mph
Humidity: 96%   Direction: 280°W
Pressure: 30.03"   Gusts: NA
Location:  42.46°N, 112.57°W
Report Text: KPIH 211053Z AUTO 28004KT 5SM BR CLR M06/M07 A3003 RMK AO2 SLP193 T10611067
Loading
Personal Weather Stations






























Interactive Weather Map New forecast layout! Learn more

10-Day Weather Forecast

Advertisements
Track Severe Weather on mobile